Time;durP1;ratioP1;P1;durP2;ratioP2;P2;SDS_P1;SDS_P2;PMS_P1;PMS_P2;Temp;Humidity;BMP_temperature;BMP_pressure;BME280_temperature;BME280_humidity;BME280_pressure;Samples;Min_cycle;Max_cycle;Signal;HPM_P1;HPM_P2
2022/09/11 00:00:50;;;;;;;22.60;14.60;;;10.50;99.90;;;;;;5033231;28;20037;-66
2022/09/11 00:03:17;;;;;;;19.95;13.57;;;10.60;99.90;;;;;;5032684;28;20117;-66
2022/09/11 00:05:43;;;;;;;17.02;13.23;;;10.60;99.90;;;;;;5033235;28;20029;-66
2022/09/11 00:08:11;;;;;;;21.27;13.88;;;10.60;99.90;;;;;;5033597;28;20056;-66
2022/09/11 00:10:41;;;;;;;18.10;12.30;;;10.60;99.90;;;;;;5032834;28;20033;-66
2022/09/11 00:13:11;;;;;;;18.83;15.02;;;10.50;99.90;;;;;;5032585;28;20052;-65
2022/09/11 00:15:39;;;;;;;27.27;16.05;;;10.50;99.90;;;;;;5033482;28;20024;-65
2022/09/11 00:18:06;;;;;;;24.38;16.95;;;10.60;99.90;;;;;;5032986;28;20020;-65
2022/09/11 00:20:32;;;;;;;23.85;17.50;;;10.60;99.90;;;;;;5032855;28;20052;-65
2022/09/11 00:23:04;;;;;;;26.90;17.30;;;10.60;99.90;;;;;;5032344;28;20022;-66
2022/09/11 00:25:33;;;;;;;24.85;17.08;;;10.70;99.90;;;;;;5033093;28;20084;-66
2022/09/11 00:27:59;;;;;;;27.15;19.80;;;10.70;99.90;;;;;;5032720;28;20037;-66
2022/09/11 00:30:25;;;;;;;27.13;19.30;;;10.80;99.90;;;;;;5033044;28;20026;-66
2022/09/11 00:32:51;;;;;;;26.58;19.65;;;10.80;99.90;;;;;;5036304;28;20040;-65
2022/09/11 00:35:16;;;;;;;33.50;22.45;;;10.80;99.90;;;;;;5035956;28;20030;-65
2022/09/11 00:37:42;;;;;;;28.23;21.45;;;10.90;99.90;;;;;;5036859;28;20063;-65
2022/09/11 00:40:08;;;;;;;38.47;21.52;;;10.90;99.90;;;;;;5036374;28;20057;-65
2022/09/11 00:42:34;;;;;;;27.83;20.63;;;11.00;99.90;;;;;;5036102;28;20533;-65
2022/09/11 00:45:05;;;;;;;31.35;21.85;;;11.10;99.90;;;;;;5035494;28;20120;-65
2022/09/11 00:47:31;;;;;;;31.92;20.85;;;11.00;99.90;;;;;;5036327;28;20064;-66
2022/09/11 00:50:08;;;;;;;33.25;20.23;;;11.00;99.90;;;;;;5036335;28;20056;-66
2022/09/11 00:52:40;;;;;;;27.20;18.63;;;11.00;99.90;;;;;;5036073;28;20029;-66
2022/09/11 00:55:10;;;;;;;25.05;18.98;;;10.90;99.90;;;;;;5035766;28;20116;-66
2022/09/11 00:57:47;;;;;;;31.42;19.73;;;10.90;99.90;;;;;;5036141;28;20060;-65
2022/09/11 01:00:13;;;;;;;32.95;19.33;;;10.90;99.90;;;;;;5036141;28;20374;-65
2022/09/11 01:02:41;;;;;;;31.80;22.42;;;10.90;99.90;;;;;;5035739;28;20029;-65
2022/09/11 01:05:08;;;;;;;30.38;21.33;;;10.80;99.90;;;;;;5035707;28;20083;-65
2022/09/11 01:07:35;;;;;;;31.70;20.45;;;10.90;99.90;;;;;;5035950;28;20041;-65
2022/09/11 01:10:02;;;;;;;26.63;20.67;;;10.80;99.90;;;;;;5035666;28;20396;-65
2022/09/11 01:12:49;;;;;;;26.17;20.23;;;10.80;99.90;;;;;;5035689;28;20025;-65
2022/09/11 01:15:24;;;;;;;30.35;19.20;;;10.70;99.90;;;;;;5035502;28;20473;-65
2022/09/11 01:18:07;;;;;;;28.60;18.08;;;10.70;99.90;;;;;;5038124;28;20412;-65
2022/09/11 01:21:07;;;;;;;20.67;16.02;;;10.60;99.90;;;;;;5050681;28;20031;-66
2022/09/11 01:23:56;;;;;;;25.27;16.55;;;10.50;99.90;;;;;;5034966;28;20417;-66
2022/09/11 01:26:37;;;;;;;30.85;20.08;;;10.40;99.90;;;;;;5035701;28;20072;-66
2022/09/11 01:29:36;;;;;;;34.10;19.48;;;10.50;99.90;;;;;;5035870;28;20404;-65
2022/09/11 01:32:15;;;;;;;22.95;15.70;;;10.50;99.90;;;;;;5035520;28;20084;-65
2022/09/11 01:35:27;;;;;;;27.05;18.67;;;10.40;99.90;;;;;;5034858;28;20022;-65
2022/09/11 01:38:10;;;;;;;20.45;14.27;;;10.30;99.90;;;;;;5031790;28;20539;-66
2022/09/11 01:40:48;;;;;;;22.03;16.63;;;10.10;99.90;;;;;;5035443;28;20033;-66
2022/09/11 01:43:23;;;;;;;22.83;15.23;;;10.10;99.90;;;;;;5035166;28;20028;-66
2022/09/11 01:45:51;;;;;;;28.60;16.98;;;10.00;99.90;;;;;;5035037;28;20033;-65
2022/09/11 01:48:21;;;;;;;26.35;16.10;;;10.00;99.90;;;;;;5034800;28;20025;-66
2022/09/11 01:50:48;;;;;;;21.30;15.13;;;9.90;99.90;;;;;;5034176;28;20059;-65
2022/09/11 01:53:16;;;;;;;23.60;16.40;;;9.90;99.90;;;;;;5034729;28;20532;-65
2022/09/11 01:55:48;;;;;;;19.38;15.15;;;9.90;99.90;;;;;;5034977;28;20091;-65
2022/09/11 01:58:24;;;;;;;25.25;17.65;;;9.90;99.90;;;;;;5035081;28;20030;-66
2022/09/11 02:00:54;;;;;;;24.90;16.90;;;9.90;99.90;;;;;;5034470;28;20424;-66
2022/09/11 02:03:28;;;;;;;20.23;16.20;;;9.80;99.90;;;;;;5035132;28;20482;-65
2022/09/11 02:06:02;;;;;;;24.08;18.05;;;9.80;99.90;;;;;;5033316;28;20034;-65
2022/09/11 02:08:43;;;;;;;25.25;18.70;;;9.80;99.90;;;;;;5034972;28;20044;-65
2022/09/11 02:11:11;;;;;;;21.63;15.98;;;9.90;99.90;;;;;;5034415;28;20021;-65
2022/09/11 02:13:53;;;;;;;35.40;18.20;;;9.90;99.90;;;;;;5046609;28;20028;-65
2022/09/11 02:16:31;;;;;;;33.35;18.95;;;9.90;99.90;;;;;;5054070;28;20025;-65
2022/09/11 02:19:01;;;;;;;27.95;19.90;;;9.90;99.90;;;;;;5052240;28;20487;-65
2022/09/11 02:21:27;;;;;;;29.42;19.02;;;10.00;99.90;;;;;;5034540;28;20064;-65
2022/09/11 02:23:54;;;;;;;42.28;19.63;;;10.00;99.90;;;;;;5034288;28;20065;-66
2022/09/11 02:26:23;;;;;;;46.72;20.05;;;10.10;99.90;;;;;;5033883;28;20044;-66
2022/09/11 02:28:49;;;;;;;24.20;18.17;;;10.30;99.90;;;;;;5034306;28;20021;-65
2022/09/11 02:31:18;;;;;;;24.88;19.65;;;10.40;99.90;;;;;;5034405;28;20095;-66
2022/09/11 02:33:44;;;;;;;27.67;18.25;;;10.40;99.90;;;;;;5034616;28;20033;-65
2022/09/11 02:36:27;;;;;;;25.95;18.60;;;10.40;99.90;;;;;;5033701;28;20045;-66
2022/09/11 02:39:11;;;;;;;18.23;16.25;;;10.40;99.90;;;;;;5087646;22;20132;-69
2022/09/11 02:42:02;;;;;;;17.38;14.77;;;10.40;99.90;;;;;;5034985;28;20087;-69
2022/09/11 02:44:42;;;;;;;19.10;14.82;;;10.30;99.90;;;;;;5034091;28;20037;-69
2022/09/11 02:47:46;;;;;;;18.35;14.65;;;10.20;99.90;;;;;;5034389;28;20021;-70
2022/09/11 02:50:20;;;;;;;;;;;10.10;99.90;;;;;;5034314;28;20135;-69
2022/09/11 02:53:04;;;;;;;19.02;14.65;;;10.00;99.90;;;;;;5054288;28;19908;-70
2022/09/11 02:55:44;;;;;;;16.20;13.23;;;9.90;99.90;;;;;;5053475;28;20029;-70
2022/09/11 02:58:22;;;;;;;20.48;15.55;;;9.80;99.90;;;;;;5053995;28;20028;-69
2022/09/11 03:00:47;;;;;;;18.30;13.88;;;9.70;99.90;;;;;;5054109;28;20357;-70
2022/09/11 03:03:14;;;;;;;17.27;13.02;;;9.70;99.90;;;;;;5053269;28;20036;-69
2022/09/11 03:05:40;;;;;;;20.75;16.75;;;9.70;99.90;;;;;;5053970;28;20025;-69
2022/09/11 03:08:06;;;;;;;26.23;18.08;;;9.60;99.90;;;;;;5053863;28;20021;-69
2022/09/11 03:10:33;;;;;;;21.90;16.42;;;9.60;99.90;;;;;;5054021;28;20108;-69
2022/09/11 03:12:58;;;;;;;22.23;16.05;;;9.70;99.90;;;;;;5053157;28;20024;-69
2022/09/11 03:15:25;;;;;;;23.40;15.95;;;9.60;99.90;;;;;;5053865;28;20075;-69
2022/09/11 03:17:50;;;;;;;23.50;15.13;;;9.60;99.90;;;;;;5053574;28;20031;-69
2022/09/11 03:20:16;;;;;;;25.67;17.70;;;9.50;99.90;;;;;;5053006;28;20100;-69
2022/09/11 03:22:42;;;;;;;28.83;16.40;;;9.50;99.90;;;;;;5053935;28;20017;-69
2022/09/11 03:25:09;;;;;;;27.40;16.10;;;9.50;99.90;;;;;;5053694;28;20025;-69
2022/09/11 03:27:37;;;;;;;31.17;17.70;;;9.40;99.90;;;;;;5053418;28;20033;-69
2022/09/11 03:30:03;;;;;;;24.80;15.27;;;9.30;99.90;;;;;;5053485;28;20017;-69
2022/09/11 03:32:29;;;;;;;20.38;15.68;;;9.30;99.90;;;;;;5052981;28;20029;-69
2022/09/11 03:34:55;;;;;;;22.23;15.32;;;9.30;99.90;;;;;;5053334;28;20013;-69
2022/09/11 03:37:20;;;;;;;19.92;14.82;;;9.30;99.90;;;;;;5053187;28;20025;-69
2022/09/11 03:39:47;;;;;;;16.90;13.77;;;9.40;99.90;;;;;;5053748;28;20111;-69
2022/09/11 03:42:12;;;;;;;16.40;13.02;;;9.40;99.90;;;;;;5039436;28;20022;-69
2022/09/11 03:44:38;;;;;;;18.00;13.90;;;9.40;99.90;;;;;;5053238;28;20032;-69
2022/09/11 03:47:04;;;;;;;17.65;12.70;;;9.40;99.90;;;;;;5052549;28;20029;-69
2022/09/11 03:49:30;;;;;;;17.33;13.52;;;9.40;99.90;;;;;;5053549;28;20117;-69
2022/09/11 03:51:56;;;;;;;14.65;12.23;;;9.40;99.90;;;;;;5053351;28;20112;-69
2022/09/11 03:54:21;;;;;;;14.93;12.45;;;9.40;99.90;;;;;;5053197;28;20087;-69
2022/09/11 03:56:47;;;;;;;16.63;13.57;;;9.40;99.90;;;;;;5053144;28;20049;-69
2022/09/11 03:59:13;;;;;;;18.75;14.50;;;9.40;99.90;;;;;;5053410;28;20025;-69
2022/09/11 04:01:38;;;;;;;20.05;16.05;;;9.50;99.90;;;;;;5052703;28;20025;-69
2022/09/11 04:04:05;;;;;;;30.15;15.73;;;9.60;99.90;;;;;;5053169;28;20476;-69
2022/09/11 04:06:31;;;;;;;17.58;15.68;;;9.70;99.90;;;;;;5054797;28;20104;-69
2022/09/11 04:08:57;;;;;;;38.35;15.82;;;9.70;99.90;;;;;;5056896;28;20025;-69
2022/09/11 04:11:23;;;;;;;16.58;14.82;;;9.70;99.90;;;;;;5056878;28;20445;-69
2022/09/11 04:13:50;;;;;;;18.80;15.10;;;9.70;99.90;;;;;;5056946;28;20544;-69
2022/09/11 04:16:18;;;;;;;43.17;15.88;;;9.60;99.90;;;;;;5056262;28;20051;-69
2022/09/11 04:18:45;;;;;;;42.17;17.10;;;9.60;99.90;;;;;;5057021;28;20021;-69
2022/09/11 04:21:13;;;;;;;23.60;16.33;;;9.70;99.90;;;;;;5056811;28;20017;-69
2022/09/11 04:23:40;;;;;;;23.50;16.60;;;9.70;99.90;;;;;;5057036;28;20074;-69
2022/09/11 04:26:17;;;;;;;20.95;17.55;;;9.70;99.90;;;;;;5057203;28;20357;-69
2022/09/11 04:28:43;;;;;;;22.30;16.98;;;9.80;99.90;;;;;;5056660;28;20029;-69
2022/09/11 04:31:09;;;;;;;31.05;19.63;;;9.90;99.90;;;;;;5055961;28;20052;-69
2022/09/11 04:33:35;;;;;;;36.20;22.30;;;10.00;99.90;;;;;;5056507;28;20033;-69
2022/09/11 04:36:09;;;;;;;44.95;24.95;;;10.10;99.90;;;;;;5056576;28;20025;-69
2022/09/11 04:38:35;;;;;;;45.13;25.63;;;10.30;99.90;;;;;;5055868;28;20028;-69
2022/09/11 04:41:05;;;;;;;37.58;24.15;;;10.40;99.90;;;;;;5056443;28;20039;-69
2022/09/11 04:43:34;;;;;;;39.58;24.40;;;10.50;99.90;;;;;;5056658;28;20029;-69
2022/09/11 04:46:09;;;;;;;36.88;21.17;;;10.50;99.90;;;;;;5055944;28;20039;-69
2022/09/11 04:48:37;;;;;;;28.92;20.50;;;10.60;99.90;;;;;;5056307;28;20028;-69
2022/09/11 04:51:07;;;;;;;35.58;22.83;;;10.70;99.90;;;;;;5056158;28;20028;-69
2022/09/11 04:53:35;;;;;;;36.10;21.75;;;10.70;99.90;;;;;;5056113;28;20427;-69
2022/09/11 04:56:11;;;;;;;34.28;22.90;;;10.80;99.90;;;;;;5056085;28;20053;-69
2022/09/11 04:58:36;;;;;;;27.77;20.90;;;10.90;99.90;;;;;;5056350;28;20490;-69
2022/09/11 05:01:07;;;;;;;30.27;21.45;;;10.90;99.90;;;;;;5056030;28;20061;-69
2022/09/11 05:03:33;;;;;;;28.67;19.95;;;11.00;99.90;;;;;;5056168;28;20388;-69
2022/09/11 05:06:04;;;;;;;34.63;23.13;;;11.10;99.90;;;;;;5056194;28;20047;-69
2022/09/11 05:08:32;;;;;;;33.67;18.90;;;11.10;99.90;;;;;;5056105;28;20040;-69
2022/09/11 05:10:58;;;;;;;31.92;20.65;;;11.20;99.90;;;;;;5055421;28;20028;-69
2022/09/11 05:13:25;;;;;;;38.75;22.33;;;11.20;99.90;;;;;;5055751;28;20032;-69
2022/09/11 05:15:50;;;;;;;27.55;19.23;;;11.20;99.90;;;;;;5055996;28;20033;-69
2022/09/11 05:18:15;;;;;;;31.48;20.38;;;11.30;99.90;;;;;;5055209;28;20032;-69
2022/09/11 05:20:42;;;;;;;30.40;19.33;;;11.40;99.90;;;;;;5055628;28;20419;-69
2022/09/11 05:23:10;;;;;;;37.08;19.55;;;11.40;99.90;;;;;;5055608;28;20025;-69
2022/09/11 05:25:36;;;;;;;33.53;19.02;;;11.40;99.90;;;;;;5055093;28;20059;-69
2022/09/11 05:28:03;;;;;;;37.85;19.50;;;11.40;99.90;;;;;;5055581;28;20056;-69
2022/09/11 05:30:28;;;;;;;29.42;17.23;;;11.40;99.90;;;;;;5055556;28;20076;-69
2022/09/11 05:32:54;;;;;;;25.27;16.33;;;11.50;99.90;;;;;;5055685;28;20100;-69
2022/09/11 05:35:23;;;;;;;24.50;19.05;;;11.50;99.90;;;;;;5055475;28;20516;-69
2022/09/11 05:37:48;;;;;;;23.10;15.98;;;11.60;99.90;;;;;;5054898;28;20029;-69
2022/09/11 05:40:14;;;;;;;23.63;17.52;;;11.70;99.90;;;;;;5055345;28;20027;-69
2022/09/11 05:42:40;;;;;;;33.55;20.25;;;11.70;99.90;;;;;;5053965;28;20116;-69
2022/09/11 05:45:06;;;;;;;27.10;18.65;;;11.70;99.90;;;;;;5055176;28;20033;-69
2022/09/11 05:47:32;;;;;;;31.30;18.05;;;11.80;99.90;;;;;;5055089;28;20040;-70
2022/09/11 05:49:58;;;;;;;31.05;17.85;;;11.80;99.90;;;;;;5055353;28;20370;-70
2022/09/11 05:52:24;;;;;;;26.70;16.60;;;11.80;99.90;;;;;;5054590;28;20032;-69
2022/09/11 05:54:50;;;;;;;25.80;16.77;;;11.80;99.90;;;;;;5055014;28;20021;-70
2022/09/11 05:57:16;;;;;;;26.00;16.67;;;11.90;99.90;;;;;;5054967;28;20021;-69
2022/09/11 05:59:41;;;;;;;30.42;18.85;;;11.90;99.90;;;;;;5055154;28;20027;-69
2022/09/11 06:02:09;;;;;;;22.42;16.83;;;12.00;99.90;;;;;;5054196;28;20024;-69
2022/09/11 06:04:35;;;;;;;26.05;16.90;;;12.00;99.90;;;;;;5054778;28;20021;-69
2022/09/11 06:07:01;;;;;;;24.95;17.27;;;12.10;99.90;;;;;;5054643;28;20124;-69
2022/09/11 06:09:26;;;;;;;24.55;15.57;;;12.10;99.90;;;;;;5054710;28;20079;-69
2022/09/11 06:11:52;;;;;;;24.20;16.65;;;12.20;99.90;;;;;;5054503;28;20048;-70
2022/09/11 06:14:17;;;;;;;27.77;16.98;;;12.30;99.90;;;;;;5054878;28;20013;-70
2022/09/11 06:16:43;;;;;;;35.92;19.05;;;12.30;99.90;;;;;;5053958;28;20033;-69
2022/09/11 06:19:08;;;;;;;22.35;16.80;;;12.30;99.90;;;;;;5054567;28;20031;-69
2022/09/11 06:21:35;;;;;;;23.30;15.82;;;12.40;99.90;;;;;;5054745;28;20059;-70
2022/09/11 06:24:01;;;;;;;24.45;15.82;;;12.50;99.90;;;;;;5054571;28;20052;-69
2022/09/11 06:26:28;;;;;;;22.08;15.00;;;12.60;99.90;;;;;;5054000;28;20033;-69
2022/09/11 06:28:53;;;;;;;23.45;16.15;;;12.60;99.90;;;;;;5053507;28;20017;-69
2022/09/11 06:31:22;;;;;;;25.75;15.77;;;12.60;99.90;;;;;;5054206;28;20104;-69
2022/09/11 06:33:48;;;;;;;30.08;16.35;;;12.70;99.90;;;;;;5054188;28;20075;-69
2022/09/11 06:36:16;;;;;;;25.23;16.67;;;12.80;99.90;;;;;;5054227;28;20071;-69
2022/09/11 06:38:43;;;;;;;31.70;16.83;;;12.80;99.90;;;;;;5053854;28;20441;-69
2022/09/11 06:41:13;;;;;;;18.67;13.55;;;12.80;99.90;;;;;;5054119;28;20021;-69
2022/09/11 06:43:39;;;;;;;22.13;13.85;;;12.90;99.90;;;;;;5054401;28;20108;-70
2022/09/11 06:46:09;;;;;;;22.83;15.20;;;13.00;99.90;;;;;;5054120;28;20459;-69
2022/09/11 06:48:34;;;;;;;28.17;17.17;;;13.00;99.90;;;;;;5054069;28;20053;-69
2022/09/11 06:51:05;;;;;;;23.92;16.38;;;13.10;99.90;;;;;;5053585;28;20542;-69
2022/09/11 06:53:30;;;;;;;24.38;15.50;;;13.10;99.90;;;;;;5054093;28;20472;-70
2022/09/11 06:56:00;;;;;;;25.35;16.75;;;13.20;99.90;;;;;;5053985;28;20039;-70
2022/09/11 06:58:28;;;;;;;18.00;12.40;;;13.20;99.90;;;;;;5054123;28;20426;-69
2022/09/11 07:00:54;;;;;;;18.08;13.48;;;13.30;99.90;;;;;;5053828;28;20017;-69
2022/09/11 07:03:20;;;;;;;23.42;15.20;;;13.40;99.90;;;;;;5053259;28;20029;-69
2022/09/11 07:05:46;;;;;;;19.00;14.30;;;13.60;99.90;;;;;;5053742;28;20516;-69
2022/09/11 07:08:12;;;;;;;18.08;13.40;;;13.60;99.90;;;;;;5053949;28;20116;-69
2022/09/11 07:10:37;;;;;;;15.88;13.00;;;13.70;99.90;;;;;;5053920;28;20151;-69
2022/09/11 07:13:03;;;;;;;16.77;12.63;;;13.70;99.90;;;;;;5053577;28;20025;-69
2022/09/11 07:15:30;;;;;;;18.15;14.32;;;13.80;99.90;;;;;;5053269;28;20034;-69
2022/09/11 07:17:56;;;;;;;22.13;14.10;;;14.00;99.90;;;;;;5053551;28;20043;-69
2022/09/11 07:20:22;;;;;;;19.00;13.80;;;14.10;99.90;;;;;;5053480;28;20465;-69
2022/09/11 07:22:48;;;;;;;31.02;15.20;;;14.10;99.90;;;;;;5053495;28;20033;-69
2022/09/11 07:25:13;;;;;;;20.00;15.07;;;14.10;99.90;;;;;;5054004;28;20033;-69
2022/09/11 07:27:40;;;;;;;22.63;14.35;;;14.10;99.90;;;;;;5053089;28;20033;-69
2022/09/11 07:30:06;;;;;;;17.83;12.80;;;14.30;99.90;;;;;;5053678;28;20059;-69
2022/09/11 07:32:32;;;;;;;19.67;13.77;;;14.50;99.90;;;;;;5053025;28;20497;-70
2022/09/11 07:34:57;;;;;;;18.60;13.77;;;14.40;99.90;;;;;;5053633;28;20064;-70
2022/09/11 07:37:23;;;;;;;17.52;13.73;;;14.50;99.90;;;;;;5052627;28;20036;-69
2022/09/11 07:39:49;;;;;;;14.43;11.65;;;14.50;99.90;;;;;;5053631;28;20033;-69
2022/09/11 07:42:14;;;;;;;20.35;12.57;;;14.60;99.90;;;;;;5057850;28;20021;-69
2022/09/11 07:44:40;;;;;;;15.75;11.57;;;14.80;99.90;;;;;;5057414;28;20075;-69
2022/09/11 07:47:06;;;;;;;19.55;13.07;;;14.80;99.90;;;;;;5056613;28;20033;-69
2022/09/11 07:49:31;;;;;;;15.45;12.85;;;14.70;99.90;;;;;;5057591;28;20028;-69
2022/09/11 07:51:58;;;;;;;14.65;11.13;;;14.70;99.90;;;;;;5057118;28;20025;-70
2022/09/11 07:54:27;;;;;;;13.55;10.30;;;14.80;99.90;;;;;;5057468;28;20029;-69
2022/09/11 07:56:53;;;;;;;18.67;11.50;;;14.90;99.90;;;;;;5056635;28;20031;-69
2022/09/11 07:59:18;;;;;;;17.73;11.40;;;15.20;99.90;;;;;;5057187;28;20025;-68
2022/09/11 08:01:44;;;;;;;14.52;11.55;;;15.30;99.90;;;;;;5057385;28;20074;-69
2022/09/11 08:04:13;;;;;;;12.68;10.43;;;15.60;99.90;;;;;;5057538;28;20134;-69
2022/09/11 08:06:38;;;;;;;12.45;9.48;;;15.60;99.90;;;;;;5057239;28;20045;-69
2022/09/11 08:09:09;;;;;;;9.68;8.02;;;15.70;99.90;;;;;;5056305;28;20029;-69
2022/09/11 08:11:41;;;;;;;10.50;8.32;;;15.90;99.90;;;;;;5056844;28;20033;-69
2022/09/11 08:14:08;;;;;;;7.95;6.50;;;16.10;99.90;;;;;;5055648;28;20044;-69
2022/09/11 08:16:37;;;;;;;8.95;6.15;;;16.30;99.90;;;;;;5056580;28;20423;-70
2022/09/11 08:19:03;;;;;;;6.95;6.18;;;16.50;99.90;;;;;;5056770;28;20051;-70
2022/09/11 08:21:29;;;;;;;6.20;5.13;;;16.70;99.90;;;;;;5056878;28;20428;-70
2022/09/11 08:23:55;;;;;;;5.18;4.35;;;17.00;99.90;;;;;;5056835;28;20032;-70
2022/09/11 08:26:24;;;;;;;11.20;3.78;;;17.20;99.90;;;;;;5056840;28;20029;-70
2022/09/11 08:28:52;;;;;;;7.40;4.30;;;17.40;99.90;;;;;;5056243;28;20021;-70
2022/09/11 08:31:21;;;;;;;7.45;4.07;;;17.60;99.90;;;;;;5057078;28;20437;-70
2022/09/11 08:33:48;;;;;;;5.82;4.32;;;17.70;99.90;;;;;;5056669;28;20404;-70
2022/09/11 08:36:14;;;;;;;4.53;3.15;;;18.00;99.90;;;;;;5056556;28;20028;-70
2022/09/11 08:38:41;;;;;;;4.32;3.03;;;18.10;99.90;;;;;;5077140;23;20041;-66
2022/09/11 08:41:42;;;;;;;5.35;3.60;;;18.40;99.90;;;;;;5055535;28;20480;-66
2022/09/11 08:44:08;;;;;;;6.45;3.35;;;18.90;99.90;;;;;;5053308;28;20493;-67
2022/09/11 08:46:37;;;;;;;5.60;3.15;;;19.00;99.90;;;;;;5056106;28;20103;-67
2022/09/11 08:49:42;;;;;;;5.80;3.13;;;19.10;99.90;;;;;;5042357;28;20035;-67
2022/09/11 08:52:12;;;;;;;5.30;3.03;;;19.10;99.90;;;;;;5030084;28;20053;-67
2022/09/11 08:54:40;;;;;;;3.47;2.80;;;19.20;99.90;;;;;;5016849;28;20018;-67
2022/09/11 08:57:27;;;;;;;6.03;2.53;;;19.10;99.90;;;;;;5015771;28;20390;-67
2022/09/11 09:00:04;;;;;;;2.25;1.73;;;18.60;99.90;;;;;;5016344;28;20386;-67
2022/09/11 09:02:57;;;;;;;2.05;1.70;;;18.40;99.90;;;;;;5016402;28;20026;-67
2022/09/11 09:05:51;;;;;;;2.97;1.85;;;18.60;99.90;;;;;;5016045;28;20037;-68
2022/09/11 09:08:20;;;;;;;3.35;2.50;;;18.60;99.90;;;;;;5015657;28;20066;-68
2022/09/11 09:10:55;;;;;;;5.47;1.90;;;18.40;99.90;;;;;;5016135;28;20546;-66
2022/09/11 09:13:57;;;;;;;2.97;1.60;;;18.20;99.90;;;;;;5016147;28;20040;-66
2022/09/11 09:16:54;;;;;;;2.83;2.10;;;18.40;99.90;;;;;;5015893;28;20076;-66
2022/09/11 09:19:45;;;;;;;4.20;1.80;;;18.80;99.90;;;;;;5015688;28;20030;-66
2022/09/11 09:22:20;;;;;;;4.63;2.00;;;19.40;99.90;;;;;;5016218;28;20045;-66
2022/09/11 09:24:49;;;;;;;2.42;2.00;;;19.70;99.90;;;;;;5015212;28;20108;-67
2022/09/11 09:27:29;;;;;;;4.57;2.55;;;19.40;99.90;;;;;;5015642;28;20490;-67
2022/09/11 09:29:57;;;;;;;3.53;2.20;;;19.50;99.90;;;;;;5015598;28;20500;-66
2022/09/11 09:32:35;;;;;;;4.20;2.22;;;19.60;99.90;;;;;;5015626;28;20029;-67
2022/09/11 09:35:09;;;;;;;1.58;1.45;;;20.00;99.90;;;;;;5015730;28;20474;-67
2022/09/11 09:37:37;;;;;;;5.28;1.90;;;20.20;99.90;;;;;;5015738;28;20080;-67
2022/09/11 09:40:08;;;;;;;1.75;1.40;;;20.40;99.90;;;;;;5015670;28;20084;-66
2022/09/11 09:42:46;;;;;;;3.08;1.63;;;20.10;99.90;;;;;;5015644;28;20018;-66
2022/09/11 09:45:52;;;;;;;1.92;1.58;;;19.60;99.90;;;;;;5014979;28;20032;-67
2022/09/11 09:48:18;;;;;;;10.13;1.77;;;19.30;99.90;;;;;;5012425;28;20048;-66
2022/09/11 09:50:44;;;;;;;3.67;1.48;;;19.30;99.90;;;;;;5015502;28;20022;-67
2022/09/11 09:53:19;;;;;;;1.80;1.52;;;19.40;99.90;;;;;;5015062;28;20105;-67
2022/09/11 09:55:46;;;;;;;2.40;1.90;;;19.70;99.90;;;;;;5015373;28;20032;-67
2022/09/11 09:58:12;;;;;;;4.40;1.70;;;20.10;99.90;;;;;;5015073;28;20486;-67
2022/09/11 10:00:40;;;;;;;4.88;1.95;;;20.30;99.90;;;;;;5014990;28;20026;-67
2022/09/11 10:03:20;;;;;;;2.00;1.42;;;20.20;99.90;;;;;;5014867;28;20080;-67
2022/09/11 10:05:49;;;;;;;6.43;0.93;;;20.00;99.90;;;;;;5015151;28;20059;-67
2022/09/11 10:08:32;;;;;;;1.77;1.20;;;19.60;99.90;;;;;;5014998;28;20022;-67
2022/09/11 10:11:00;;;;;;;4.10;1.50;;;19.40;99.90;;;;;;5014355;28;20041;-67
2022/09/11 10:13:29;;;;;;;2.47;1.30;;;19.60;99.90;;;;;;5014612;28;20530;-66
2022/09/11 10:15:58;;;;;;;1.35;1.02;;;19.80;99.90;;;;;;5014680;28;20029;-66
2022/09/11 10:18:30;;;;;;;1.70;0.80;;;20.20;99.90;;;;;;5015023;28;20033;-67
2022/09/11 10:21:10;;;;;;;2.70;0.77;;;20.80;99.90;;;;;;5014755;28;20026;-67
2022/09/11 10:23:49;;;;;;;1.10;1.00;;;21.10;99.90;;;;;;5014301;28;20482;-67
2022/09/11 10:26:19;;;;;;;1.38;1.20;;;21.30;99.90;;;;;;5014852;28;20050;-67
2022/09/11 10:28:46;;;;;;;4.13;1.38;;;21.30;99.90;;;;;;5014415;28;20108;-67
2022/09/11 10:31:17;;;;;;;2.80;1.30;;;21.10;99.90;;;;;;5014747;28;20026;-67
2022/09/11 10:33:57;;;;;;;1.67;1.13;;;21.00;99.90;;;;;;5014194;28;20026;-66
2022/09/11 10:36:28;;;;;;;5.45;0.98;;;21.00;99.90;;;;;;5014332;28;20101;-66
2022/09/11 10:38:56;;;;;;;2.28;1.05;;;20.80;99.90;;;;;;5014101;28;20037;-67
2022/09/11 10:41:23;;;;;;;4.93;0.98;;;20.70;99.90;;;;;;5013918;28;20030;-67
2022/09/11 10:44:04;;;;;;;3.55;1.27;;;21.00;99.90;;;;;;5014498;28;20355;-67
2022/09/11 10:46:38;;;;;;;6.70;1.27;;;21.40;99.90;;;;;;5014485;28;20069;-67
2022/09/11 10:49:04;;;;;;;1.65;1.00;;;21.80;99.90;;;;;;5014190;28;20030;-67
2022/09/11 10:52:07;;;;;;;4.13;1.23;;;22.20;99.90;;;;;;5013735;28;20036;-67
2022/09/11 10:54:58;;;;;;;2.40;0.98;;;22.40;99.90;;;;;;5013432;28;20099;-67
2022/09/11 10:57:43;;;;;;;1.35;0.75;;;22.70;99.90;;;;;;5013952;28;20030;-68
2022/09/11 11:00:22;;;;;;;3.28;1.13;;;23.10;99.90;;;;;;5013998;28;20101;-67
2022/09/11 11:02:55;;;;;;;3.42;1.20;;;23.00;99.90;;;;;;5013965;28;20040;-67
2022/09/11 11:05:29;;;;;;;6.47;0.90;;;22.70;99.90;;;;;;5013444;28;20032;-67
2022/09/11 11:08:25;;;;;;;5.03;0.93;;;22.50;99.90;;;;;;5014069;28;20062;-67
2022/09/11 11:11:21;;;;;;;1.63;0.82;;;22.00;99.90;;;;;;5013816;28;20072;-67
2022/09/11 11:14:04;;;;;;;2.45;0.95;;;21.40;99.90;;;;;;5013728;28;20504;-67
2022/09/11 11:16:38;;;;;;;3.83;1.00;;;21.20;99.90;;;;;;5013448;28;20104;-68
2022/09/11 11:19:28;;;;;;;5.80;1.00;;;21.60;99.90;;;;;;5013608;28;20026;-67
2022/09/11 11:22:07;;;;;;;1.63;0.93;;;22.00;99.90;;;;;;5013730;28;20025;-67
2022/09/11 11:25:00;;;;;;;2.30;0.80;;;22.60;99.90;;;;;;5013714;28;20454;-67
2022/09/11 11:27:32;;;;;;;0.90;0.80;;;23.10;99.90;;;;;;5013806;28;20030;-67
2022/09/11 11:30:04;;;;;;;2.00;1.00;;;22.90;99.90;;;;;;5013887;28;20412;-68
2022/09/11 11:33:02;;;;;;;1.65;1.10;;;22.60;99.90;;;;;;5013511;28;20080;-67
2022/09/11 11:35:33;;;;;;;1.40;0.98;;;22.30;99.90;;;;;;5013906;28;20030;-67
2022/09/11 11:38:08;;;;;;;1.20;1.10;;;21.80;99.90;;;;;;5013463;28;20045;-67
2022/09/11 11:40:46;;;;;;;1.58;0.93;;;21.60;99.90;;;;;;5013577;28;20064;-67
2022/09/11 11:43:16;;;;;;;1.63;0.98;;;21.10;99.90;;;;;;5013813;28;20041;-67
2022/09/11 11:45:51;;;;;;;2.67;1.10;;;20.90;99.90;;;;;;5013743;28;20022;-67
2022/09/11 11:48:24;;;;;;;2.30;1.05;;;21.40;99.90;;;;;;5013354;28;20029;-68
2022/09/11 11:50:54;;;;;;;0.75;0.75;;;22.40;99.90;;;;;;5013724;28;20041;-67
2022/09/11 11:53:34;;;;;;;2.08;1.10;;;23.00;99.90;;;;;;5013359;28;20072;-67
2022/09/11 11:56:27;;;;;;;5.45;1.27;;;22.90;99.90;;;;;;5013681;28;20034;-67
2022/09/11 11:59:01;;;;;;;2.00;0.93;;;22.70;99.90;;;;;;5012816;28;20022;-67
2022/09/11 12:01:31;;;;;;;2.85;1.23;;;22.20;99.90;;;;;;5013690;28;20359;-67
2022/09/11 12:04:27;;;;;;;1.73;1.20;;;21.70;99.90;;;;;;5013510;28;20057;-67
2022/09/11 12:06:53;;;;;;;1.38;1.05;;;21.40;99.90;;;;;;5013326;28;20025;-67
2022/09/11 12:09:19;;;;;;;2.00;0.80;;;21.30;99.90;;;;;;5012519;28;20242;-67
2022/09/11 12:11:51;;;;;;;2.30;1.08;;;21.20;99.90;;;;;;5019123;28;20014;-67
2022/09/11 12:14:28;;;;;;;1.17;0.70;;;21.40;99.90;;;;;;5027880;28;20030;-67
2022/09/11 12:17:14;;;;;;;1.10;0.90;;;21.60;99.90;;;;;;5013331;28;20025;-67
2022/09/11 12:20:12;;;;;;;1.23;0.73;;;21.40;99.90;;;;;;5012662;28;20053;-67
2022/09/11 12:22:43;;;;;;;1.25;1.08;;;21.70;99.90;;;;;;5013446;28;20030;-67
2022/09/11 12:25:17;;;;;;;1.58;1.08;;;21.90;99.90;;;;;;5013209;28;20033;-67
2022/09/11 12:27:43;;;;;;;2.20;1.17;;;21.80;99.90;;;;;;5014949;28;20029;-67
2022/09/11 12:30:22;;;;;;;2.15;1.05;;;21.60;99.90;;;;;;5016295;28;20034;-67
2022/09/11 12:33:01;;;;;;;8.85;0.98;;;21.70;99.90;;;;;;5016941;28;20030;-67
2022/09/11 12:35:48;;;;;;;1.77;0.85;;;21.60;99.90;;;;;;5016607;28;20025;-67
2022/09/11 12:38:38;;;;;;;3.72;1.08;;;22.30;99.90;;;;;;5016330;28;20069;-67
2022/09/11 12:41:21;;;;;;;2.67;1.08;;;22.90;99.90;;;;;;5016249;28;20347;-67
2022/09/11 12:43:48;;;;;;;4.07;1.20;;;24.10;99.90;;;;;;5016339;28;20473;-67
2022/09/11 12:46:20;;;;;;;6.05;1.10;;;24.30;99.90;;;;;;5016709;28;20037;-67
2022/09/11 12:48:49;;;;;;;3.65;0.90;;;23.90;99.90;;;;;;5016616;28;20033;-67
2022/09/11 12:51:31;;;;;;;1.85;0.82;;;23.20;99.90;;;;;;5015735;28;20088;-66
2022/09/11 12:54:00;;;;;;;1.52;1.08;;;22.40;99.90;;;;;;5016455;28;20034;-67
2022/09/11 12:56:29;;;;;;;1.02;0.90;;;21.90;99.90;;;;;;5016149;28;20428;-67
2022/09/11 12:59:00;;;;;;;1.80;0.85;;;21.60;99.90;;;;;;5016380;28;20026;-66